createdAt,value
2018-01-29T00:01:14.842Z,7.80
2018-01-29T00:03:42.957Z,7.80
2018-01-29T00:06:11.067Z,7.80
2018-01-29T00:08:39.168Z,7.80
2018-01-29T00:11:08.023Z,7.80
2018-01-29T00:13:36.120Z,7.80
2018-01-29T00:16:05.045Z,7.80
2018-01-29T00:18:33.161Z,7.80
2018-01-29T00:21:01.337Z,7.80
2018-01-29T00:23:29.429Z,7.90
2018-01-29T00:25:57.557Z,7.90
2018-01-29T00:28:25.674Z,7.90
2018-01-29T00:30:53.859Z,8.00
2018-01-29T00:33:21.960Z,8.00
2018-01-29T00:35:50.059Z,8.10
2018-01-29T00:38:18.141Z,8.10
2018-01-29T00:40:46.276Z,8.10
2018-01-29T00:43:14.369Z,8.10
2018-01-29T00:45:42.482Z,8.10
2018-01-29T00:48:11.343Z,8.10
2018-01-29T00:50:39.452Z,8.10
2018-01-29T00:53:08.312Z,8.10
2018-01-29T00:55:36.399Z,8.10
2018-01-29T00:58:05.252Z,8.10
2018-01-29T01:00:33.362Z,8.10
2018-01-29T01:03:02.232Z,8.00
2018-01-29T01:05:30.326Z,8.00
2018-01-29T01:07:59.186Z,8.00
2018-01-29T01:10:27.332Z,8.00
2018-01-29T01:12:55.460Z,8.00
2018-01-29T01:15:23.635Z,8.00
2018-01-29T01:17:51.734Z,8.00
2018-01-29T01:20:19.830Z,8.00
2018-01-29T01:22:47.942Z,8.10
2018-01-29T01:49:31.578Z,8.20
2018-01-29T01:51:59.658Z,8.30
2018-01-29T01:54:27.766Z,8.30
2018-01-29T01:56:56.051Z,8.30
2018-01-29T01:59:24.274Z,8.40
2018-01-29T02:01:52.464Z,8.40
2018-01-29T02:04:20.606Z,8.40
2018-01-29T02:06:48.701Z,8.40
2018-01-29T02:09:16.814Z,8.40
2018-01-29T02:24:39.955Z,8.40
2018-01-29T02:27:08.067Z,7.80
2018-01-29T02:29:36.232Z,7.80
2018-01-29T02:32:05.263Z,7.80
2018-01-29T02:34:33.883Z,7.80
2018-01-29T02:37:02.705Z,7.80
2018-01-29T02:39:30.812Z,7.90
2018-01-29T02:41:58.910Z,7.90
2018-01-29T02:44:27.875Z,7.90
2018-01-29T02:46:56.016Z,7.90
2018-01-29T02:49:24.135Z,7.90
2018-01-29T02:51:52.238Z,7.80
2018-01-29T02:54:20.963Z,7.70
2018-01-29T02:56:49.410Z,7.70
2018-01-29T02:59:17.549Z,7.60
2018-01-29T03:01:45.635Z,7.60
2018-01-29T03:04:14.775Z,7.50
2018-01-29T03:06:42.951Z,7.50
2018-01-29T03:09:11.062Z,7.50
2018-01-29T03:11:39.175Z,7.40
2018-01-29T03:14:08.072Z,7.40
2018-01-29T03:16:36.285Z,7.40
2018-01-29T03:19:04.424Z,7.40
2018-01-29T03:21:32.530Z,7.40
2018-01-29T03:24:00.664Z,7.40
2018-01-29T03:26:28.748Z,7.40
2018-01-29T03:28:56.916Z,7.50
2018-01-29T03:31:25.147Z,7.50
2018-01-29T03:33:53.252Z,7.50
2018-01-29T03:36:21.382Z,7.50
2018-01-29T03:38:49.485Z,7.60
2018-01-29T03:41:17.646Z,7.60
2018-01-29T03:43:45.734Z,7.70
2018-01-29T03:46:14.713Z,7.80
2018-01-29T03:48:42.809Z,7.80
2018-01-29T03:51:10.953Z,7.90
2018-01-29T03:53:39.086Z,8.00
2018-01-29T03:56:08.051Z,8.20
2018-01-29T03:58:36.349Z,8.20
2018-01-29T04:01:04.529Z,8.30
2018-01-29T04:03:32.737Z,8.40
2018-01-29T04:06:00.951Z,8.50
2018-01-29T04:08:29.209Z,8.50
2018-01-29T04:10:57.366Z,8.60
2018-01-29T04:13:29.533Z,8.60
2018-01-29T04:15:57.669Z,8.70
2018-01-29T04:18:25.775Z,8.70
2018-01-29T04:20:53.879Z,8.80
2018-01-29T04:23:21.976Z,8.80
2018-01-29T04:25:50.093Z,8.80
2018-01-29T04:28:18.188Z,8.80
2018-01-29T04:30:46.424Z,8.80
2018-01-29T04:33:14.626Z,8.80
2018-01-29T04:35:42.819Z,8.80
2018-01-29T04:38:12.704Z,8.70
2018-01-29T04:40:40.816Z,8.70
2018-01-29T04:43:08.928Z,8.70
2018-01-29T04:45:38.566Z,8.70
2018-01-29T05:01:01.726Z,8.70
2018-01-29T05:03:29.808Z,8.00
2018-01-29T05:05:57.928Z,7.90
2018-01-29T05:08:26.090Z,7.90
2018-01-29T05:10:54.174Z,8.00
2018-01-29T05:13:22.273Z,8.00
2018-01-29T05:15:50.405Z,8.00
2018-01-29T05:18:18.524Z,8.00
2018-01-29T05:20:46.629Z,8.00
2018-01-29T05:23:14.787Z,8.00
2018-01-29T05:25:42.914Z,8.00
2018-01-29T05:28:11.109Z,8.00
2018-01-29T05:30:39.229Z,7.90
2018-01-29T05:33:07.339Z,7.90
2018-01-29T05:35:51.073Z,7.90
2018-01-29T05:38:21.640Z,7.80
2018-01-29T05:40:49.743Z,7.80
2018-01-29T05:43:17.853Z,7.80
2018-01-29T05:45:45.939Z,7.70
2018-01-29T05:48:14.022Z,7.70
2018-01-29T05:50:42.895Z,7.60
2018-01-29T05:53:10.997Z,7.60
2018-01-29T05:55:39.179Z,7.60
2018-01-29T05:58:07.262Z,7.50
2018-01-29T06:00:35.459Z,7.50
2018-01-29T06:03:03.563Z,7.50
2018-01-29T06:05:31.677Z,7.50
2018-01-29T06:07:59.774Z,7.40
2018-01-29T06:10:27.928Z,7.40
2018-01-29T06:12:56.056Z,7.40
2018-01-29T06:15:24.145Z,7.30
2018-01-29T06:17:52.732Z,7.20
2018-01-29T06:20:20.820Z,7.20
2018-01-29T06:22:48.941Z,7.10
2018-01-29T06:25:17.042Z,7.10
2018-01-29T06:27:45.220Z,7.00
2018-01-29T06:30:14.078Z,6.90
2018-01-29T06:32:42.198Z,6.90
2018-01-29T06:35:10.288Z,6.90
2018-01-29T06:37:38.396Z,6.80
2018-01-29T06:40:06.496Z,6.70
2018-01-29T06:42:34.654Z,6.70
2018-01-29T06:45:03.571Z,6.60
2018-01-29T06:47:32.140Z,6.50
2018-01-29T06:50:00.251Z,6.40
2018-01-29T06:52:28.350Z,6.40
2018-01-29T06:54:56.443Z,6.30
2018-01-29T06:57:24.543Z,6.20
2018-01-29T06:59:52.655Z,6.10
2018-01-29T07:02:20.761Z,6.00
2018-01-29T07:04:48.865Z,5.90
2018-01-29T07:07:16.974Z,5.80
2018-01-29T07:09:45.075Z,5.70
2018-01-29T07:12:13.947Z,5.50
2018-01-29T07:14:42.069Z,5.50
2018-01-29T07:17:10.177Z,5.40
2018-01-29T07:19:38.320Z,5.30
2018-01-29T07:22:06.497Z,5.20
2018-01-29T07:24:34.575Z,5.10
2018-01-29T07:27:02.675Z,5.00
2018-01-29T07:29:30.797Z,5.00
2018-01-29T07:31:58.904Z,4.90
2018-01-29T07:34:26.999Z,4.90
2018-01-29T07:36:55.118Z,5.00
2018-01-29T07:39:23.199Z,5.00
2018-01-29T07:41:51.300Z,5.10
2018-01-29T07:44:19.396Z,5.10
2018-01-29T07:46:47.624Z,5.20
2018-01-29T07:49:15.825Z,5.20
2018-01-29T07:51:44.500Z,5.30
2018-01-29T07:54:12.597Z,5.30
2018-01-29T07:56:40.685Z,5.40
2018-01-29T07:59:09.547Z,5.70
2018-01-29T08:01:37.632Z,5.70
2018-01-29T08:04:05.733Z,5.80
2018-01-29T08:06:33.837Z,5.90
2018-01-29T08:09:01.929Z,6.00
2018-01-29T08:11:30.098Z,6.10
2018-01-29T08:13:58.993Z,6.30
2018-01-29T08:16:27.093Z,6.30
2018-01-29T08:18:55.191Z,6.40
2018-01-29T08:21:23.305Z,6.50
2018-01-29T08:23:51.396Z,6.50
2018-01-29T08:26:19.501Z,6.60
2018-01-29T08:28:47.608Z,6.70
2018-01-29T08:31:15.731Z,6.70
2018-01-29T08:33:44.605Z,6.80
2018-01-29T08:36:12.709Z,6.70
2018-01-29T08:38:41.580Z,6.80
2018-01-29T08:41:09.712Z,6.80
2018-01-29T08:43:37.832Z,6.90
2018-01-29T08:46:05.916Z,6.90
2018-01-29T08:48:34.013Z,7.00
2018-01-29T08:51:02.100Z,7.00
2018-01-29T08:53:30.200Z,7.00
2018-01-29T08:55:58.288Z,7.10
2018-01-29T08:58:26.399Z,7.10
2018-01-29T09:00:54.528Z,7.20
2018-01-29T09:03:22.642Z,7.30
2018-01-29T09:05:50.733Z,7.40
2018-01-29T09:08:18.831Z,7.50
2018-01-29T09:10:46.913Z,7.60
2018-01-29T09:13:15.041Z,7.70
2018-01-29T09:15:43.134Z,7.80
2018-01-29T09:18:11.235Z,7.90
2018-01-29T09:20:39.327Z,8.10
2018-01-29T09:23:07.445Z,8.20
2018-01-29T09:25:35.563Z,8.30
2018-01-29T09:28:03.701Z,8.50
2018-01-29T09:30:31.803Z,8.60
2018-01-29T09:32:59.955Z,8.80
2018-01-29T09:35:28.672Z,9.00
2018-01-29T09:37:56.815Z,9.10
2018-01-29T09:40:25.062Z,9.30
2018-01-29T09:42:53.248Z,9.50
2018-01-29T09:45:21.380Z,9.70
2018-01-29T09:47:49.479Z,9.90
2018-01-29T09:50:17.596Z,10.00
2018-01-29T09:52:45.707Z,10.20
2018-01-29T09:55:13.800Z,10.40
2018-01-29T09:57:41.927Z,10.60
2018-01-29T10:00:10.030Z,10.90
2018-01-29T10:02:38.232Z,11.00
2018-01-29T10:05:06.347Z,11.20
2018-01-29T10:07:34.452Z,11.30
2018-01-29T10:10:03.048Z,11.40
2018-01-29T10:12:31.273Z,11.60
2018-01-29T10:14:59.468Z,11.80
2018-01-29T10:17:27.591Z,12.00
2018-01-29T10:19:55.691Z,12.20
2018-01-29T10:22:24.420Z,12.30
2018-01-29T10:24:52.508Z,12.50
2018-01-29T10:27:21.382Z,12.90
2018-01-29T10:29:49.532Z,12.80
2018-01-29T10:32:17.623Z,13.10
2018-01-29T10:34:45.728Z,13.30
2018-01-29T10:37:13.814Z,13.50
2018-01-29T10:39:41.916Z,13.70
2018-01-29T10:42:10.044Z,13.90
2018-01-29T10:44:38.184Z,14.10
2018-01-29T10:47:06.278Z,14.30
2018-01-29T10:49:34.395Z,14.50
2018-01-29T10:52:02.491Z,14.70
2018-01-29T10:54:30.640Z,14.80
2018-01-29T10:56:58.741Z,14.90
2018-01-29T10:59:26.908Z,14.90
2018-01-29T11:02:00.533Z,15.00
2018-01-29T11:04:28.644Z,15.00
2018-01-29T11:06:57.556Z,15.10
2018-01-29T11:09:26.403Z,15.00
2018-01-29T11:11:54.519Z,15.00
2018-01-29T11:14:22.617Z,15.00
2018-01-29T11:16:50.722Z,14.90
2018-01-29T11:19:18.817Z,14.90
2018-01-29T11:21:46.960Z,14.90
2018-01-29T11:24:15.073Z,14.80
2018-01-29T11:26:43.970Z,14.80
2018-01-29T11:29:12.084Z,14.70
2018-01-29T11:31:40.180Z,14.80
2018-01-29T11:34:08.283Z,14.90
2018-01-29T11:36:36.395Z,14.90
2018-01-29T11:39:04.491Z,15.00
2018-01-29T11:41:33.328Z,15.10
2018-01-29T11:44:01.432Z,15.10
2018-01-29T11:46:29.894Z,15.10
2018-01-29T11:48:57.986Z,15.20
2018-01-29T11:51:26.108Z,15.30
2018-01-29T11:53:54.968Z,15.40
2018-01-29T11:56:23.102Z,15.40
2018-01-29T11:58:51.182Z,15.50
2018-01-29T12:01:19.296Z,15.50
2018-01-29T12:03:47.480Z,15.60
2018-01-29T12:06:16.372Z,15.70
2018-01-29T12:08:44.476Z,15.70
2018-01-29T12:11:12.559Z,15.70
2018-01-29T12:13:40.674Z,15.60
2018-01-29T12:16:08.779Z,15.70
2018-01-29T12:18:36.937Z,15.70
2018-01-29T12:21:05.039Z,15.70
2018-01-29T12:23:33.187Z,15.70
2018-01-29T12:26:01.435Z,15.80
2018-01-29T12:28:29.699Z,15.80
2018-01-29T12:30:57.941Z,15.90
2018-01-29T12:33:26.257Z,16.00
2018-01-29T12:35:54.429Z,16.20
2018-01-29T12:38:22.531Z,16.30
2018-01-29T12:40:51.405Z,16.40
2018-01-29T12:43:19.507Z,16.40
2018-01-29T12:45:47.623Z,16.50
2018-01-29T12:48:15.717Z,16.50
2018-01-29T12:50:43.908Z,16.60
2018-01-29T12:53:12.769Z,16.70
2018-01-29T12:55:40.889Z,16.70
2018-01-29T12:58:08.987Z,16.80
2018-01-29T13:00:37.092Z,16.90
2018-01-29T13:03:05.192Z,16.90
2018-01-29T13:05:33.365Z,17.00
2018-01-29T13:08:01.458Z,17.10
2018-01-29T13:10:29.564Z,17.30
2018-01-29T13:12:57.686Z,17.40
2018-01-29T13:15:25.800Z,17.50
2018-01-29T13:17:53.918Z,17.60
2018-01-29T13:20:22.016Z,17.70
2018-01-29T13:22:50.184Z,17.80
2018-01-29T13:25:18.310Z,17.90
2018-01-29T13:27:47.408Z,17.70
2018-01-29T13:30:15.510Z,17.70
2018-01-29T13:32:44.397Z,17.50
2018-01-29T13:35:12.501Z,17.40
2018-01-29T13:37:40.612Z,17.30
2018-01-29T13:40:08.722Z,17.20
2018-01-29T13:42:36.834Z,17.00
2018-01-29T13:45:04.925Z,16.90
2018-01-29T13:47:33.045Z,16.80
2018-01-29T13:50:01.953Z,16.60
2018-01-29T13:52:30.055Z,16.60
2018-01-29T13:54:58.179Z,16.60
2018-01-29T13:57:26.287Z,16.50
2018-01-29T13:59:54.986Z,16.50
2018-01-29T14:02:23.167Z,16.40
2018-01-29T14:04:52.419Z,16.30
2018-01-29T14:07:20.524Z,16.20
2018-01-29T14:09:48.627Z,16.10
2018-01-29T14:12:16.713Z,16.00
2018-01-29T14:14:44.828Z,15.90
2018-01-29T14:17:12.915Z,15.80
2018-01-29T14:19:41.028Z,15.80
2018-01-29T14:22:09.138Z,15.80
2018-01-29T14:24:37.308Z,15.70
2018-01-29T14:27:05.508Z,15.70
2018-01-29T14:29:33.653Z,15.60
2018-01-29T14:32:01.751Z,15.60
2018-01-29T14:34:29.852Z,15.50
2018-01-29T14:36:57.952Z,15.50
2018-01-29T14:39:26.096Z,15.50
2018-01-29T14:41:54.228Z,15.40
2018-01-29T14:44:22.312Z,15.40
2018-01-29T14:46:50.492Z,15.30
2018-01-29T14:49:18.593Z,15.30
2018-01-29T14:51:46.762Z,15.20
2018-01-29T14:54:15.482Z,15.20
2018-01-29T14:56:43.614Z,15.10
2018-01-29T14:59:11.722Z,15.00
2018-01-29T15:01:39.861Z,14.90
2018-01-29T15:04:07.975Z,14.90
2018-01-29T15:06:36.088Z,14.80
2018-01-29T15:09:04.187Z,14.70
2018-01-29T15:11:32.291Z,14.60
2018-01-29T15:14:01.202Z,14.50
2018-01-29T15:16:29.445Z,14.40
2018-01-29T15:18:57.537Z,14.30
2018-01-29T15:21:25.671Z,14.20
2018-01-29T15:23:53.747Z,14.20
2018-01-29T15:26:22.607Z,14.00
2018-01-29T15:28:50.799Z,14.00
2018-01-29T15:31:18.926Z,13.90
2018-01-29T15:33:47.050Z,13.80
2018-01-29T15:36:15.194Z,13.80
2018-01-29T15:38:43.286Z,13.70
2018-01-29T15:41:11.376Z,13.60
2018-01-29T15:43:39.471Z,13.50
2018-01-29T15:46:07.567Z,13.40
2018-01-29T15:48:35.759Z,13.30
2018-01-29T15:51:03.957Z,13.30
2018-01-29T15:53:32.597Z,13.20
2018-01-29T15:56:00.691Z,13.10
2018-01-29T15:58:28.788Z,13.00
2018-01-29T16:00:56.983Z,12.90
2018-01-29T16:03:25.184Z,12.80
2018-01-29T16:05:53.318Z,12.80
2018-01-29T16:08:21.440Z,12.70
2018-01-29T16:10:50.271Z,12.60
2018-01-29T16:13:18.400Z,12.60
2018-01-29T16:15:46.594Z,12.50
2018-01-29T16:18:14.738Z,12.40
2018-01-29T16:20:43.033Z,12.40
2018-01-29T16:23:11.132Z,12.30
2018-01-29T16:25:39.235Z,12.20
2018-01-29T16:28:07.330Z,12.10
2018-01-29T16:30:35.431Z,12.10
2018-01-29T16:33:03.529Z,12.00
2018-01-29T16:35:31.644Z,12.00
2018-01-29T16:37:59.749Z,11.90
2018-01-29T16:40:27.937Z,11.80
2018-01-29T16:42:56.098Z,11.70
2018-01-29T16:45:24.217Z,11.70
2018-01-29T16:47:52.351Z,11.60
2018-01-29T16:50:21.163Z,11.60
2018-01-29T16:52:49.333Z,11.50
2018-01-29T16:55:17.417Z,11.50
2018-01-29T16:57:45.661Z,11.40
2018-01-29T17:00:13.763Z,11.40
2018-01-29T17:02:41.903Z,11.30
2018-01-29T17:05:09.986Z,11.30
2018-01-29T17:07:38.082Z,11.30
2018-01-29T17:10:06.943Z,11.10
2018-01-29T17:12:35.190Z,11.10
2018-01-29T17:15:03.334Z,11.10
2018-01-29T17:17:31.446Z,11.00
2018-01-29T17:19:59.540Z,11.00
2018-01-29T17:22:27.631Z,11.00
2018-01-29T17:24:55.744Z,10.90
2018-01-29T17:27:23.831Z,10.90
2018-01-29T17:29:51.938Z,10.80
2018-01-29T17:32:20.062Z,10.70
2018-01-29T17:34:48.201Z,10.70
2018-01-29T17:37:16.636Z,10.60
2018-01-29T17:39:44.764Z,10.60
2018-01-29T17:42:12.876Z,10.50
2018-01-29T17:44:41.762Z,10.50
2018-01-29T17:47:09.866Z,10.40
2018-01-29T17:49:37.983Z,10.40
2018-01-29T17:52:06.143Z,10.40
2018-01-29T17:54:34.298Z,10.40
2018-01-29T17:57:02.411Z,10.30
2018-01-29T17:59:30.537Z,10.30
2018-01-29T18:01:58.635Z,10.30
2018-01-29T18:04:26.726Z,10.30
2018-01-29T18:06:54.851Z,10.20
2018-01-29T18:09:22.963Z,10.20
2018-01-29T18:11:51.091Z,10.20
2018-01-29T18:14:19.245Z,10.20
2018-01-29T18:16:47.367Z,10.20
2018-01-29T18:19:15.463Z,10.10
2018-01-29T18:21:44.291Z,10.10
2018-01-29T18:24:12.406Z,10.10
2018-01-29T18:26:40.612Z,10.00
2018-01-29T18:29:09.123Z,10.00
2018-01-29T18:31:37.279Z,10.00
2018-01-29T18:34:05.427Z,9.90
2018-01-29T18:36:33.538Z,9.90
2018-01-29T18:39:01.644Z,9.80
2018-01-29T18:41:29.740Z,9.80
2018-01-29T18:43:57.956Z,9.80
2018-01-29T18:46:26.008Z,9.80
2018-01-29T18:48:54.104Z,9.70
2018-01-29T18:51:22.221Z,9.70
2018-01-29T18:53:50.310Z,9.70
2018-01-29T18:56:18.436Z,9.70
2018-01-29T18:58:46.738Z,9.70
2018-01-29T19:01:15.484Z,9.70
2018-01-29T19:03:43.570Z,9.70
2018-01-29T19:06:11.802Z,9.80
2018-01-29T19:08:39.872Z,9.80
2018-01-29T19:11:07.998Z,9.80
2018-01-29T19:13:36.087Z,9.80
2018-01-29T19:16:04.787Z,9.80
2018-01-29T19:18:32.875Z,9.80
2018-01-29T19:21:01.095Z,9.80
2018-01-29T19:23:29.303Z,9.70
2018-01-29T19:25:57.560Z,9.70
2018-01-29T19:28:25.803Z,9.70
2018-01-29T19:30:53.970Z,9.60
2018-01-29T19:33:22.072Z,9.60
2018-01-29T19:35:50.168Z,9.60
2018-01-29T19:38:18.309Z,9.50
2018-01-29T19:40:46.418Z,9.50
2018-01-29T19:43:14.517Z,9.50
2018-01-29T19:45:42.669Z,9.60
2018-01-29T19:48:10.789Z,9.50
2018-01-29T19:50:38.896Z,9.50
2018-01-29T19:53:07.006Z,9.60
2018-01-29T19:55:35.097Z,9.60
2018-01-29T19:58:03.239Z,9.60
2018-01-29T20:00:31.352Z,9.50
2018-01-29T20:02:59.451Z,9.50
2018-01-29T20:05:27.564Z,9.50
2018-01-29T20:07:55.656Z,9.50
2018-01-29T20:10:23.880Z,9.50
2018-01-29T20:12:51.968Z,9.50
2018-01-29T20:15:20.080Z,9.40
2018-01-29T20:17:48.167Z,9.40
2018-01-29T20:20:16.296Z,9.40
2018-01-29T20:22:44.433Z,9.30
2018-01-29T20:25:12.616Z,9.30
2018-01-29T20:27:40.770Z,9.30
2018-01-29T20:30:09.009Z,9.30
2018-01-29T20:32:37.118Z,9.20
2018-01-29T20:35:05.232Z,9.20
2018-01-29T20:37:33.340Z,9.20
2018-01-29T20:40:01.433Z,9.20
2018-01-29T20:42:29.534Z,9.20
2018-01-29T20:44:58.154Z,9.10
2018-01-29T20:47:26.291Z,9.10
2018-01-29T20:49:54.613Z,9.10
2018-01-29T20:52:23.771Z,9.20
2018-01-29T20:54:51.906Z,9.10
2018-01-29T20:57:20.085Z,9.10
2018-01-29T20:59:48.167Z,9.10
2018-01-29T21:02:16.297Z,9.10
2018-01-29T21:04:44.405Z,9.10
2018-01-29T21:07:13.269Z,9.10
2018-01-29T21:09:41.370Z,9.10
2018-01-29T21:12:10.275Z,9.10
2018-01-29T21:14:38.430Z,9.10
2018-01-29T21:17:06.690Z,9.10
2018-01-29T21:19:34.936Z,9.10
2018-01-29T21:22:03.050Z,9.10
2018-01-29T21:24:31.167Z,9.10
2018-01-29T21:26:59.931Z,9.10
2018-01-29T21:29:27.994Z,9.10
2018-01-29T21:31:56.242Z,9.10
2018-01-29T21:34:25.131Z,9.10
2018-01-29T21:36:53.256Z,9.10
2018-01-29T21:39:25.384Z,9.10
2018-01-29T21:41:53.496Z,9.10
2018-01-29T21:44:21.650Z,9.10
2018-01-29T21:46:49.760Z,9.10
2018-01-29T21:49:17.864Z,9.10
2018-01-29T21:51:45.973Z,9.10
2018-01-29T21:54:14.087Z,9.10
2018-01-29T21:56:42.192Z,9.10
2018-01-29T21:59:10.308Z,9.10
2018-01-29T22:14:37.589Z,9.10
2018-01-29T22:17:05.687Z,8.30
2018-01-29T22:19:33.779Z,8.20
2018-01-29T22:22:01.895Z,8.20
2018-01-29T22:24:30.011Z,8.20
2018-01-29T22:26:58.105Z,8.20
2018-01-29T22:29:26.825Z,8.20
2018-01-29T22:31:54.924Z,8.30
2018-01-29T22:34:23.039Z,8.30
2018-01-29T22:36:51.133Z,8.30
2018-01-29T22:39:19.269Z,8.30
2018-01-29T22:41:47.398Z,8.40
2018-01-29T22:44:15.515Z,8.30
2018-01-29T22:46:43.790Z,8.30
2018-01-29T22:49:11.878Z,8.30
2018-01-29T22:51:40.953Z,8.30
2018-01-29T22:54:09.055Z,8.30
2018-01-29T22:56:37.138Z,8.30
2018-01-29T22:59:05.254Z,8.30
2018-01-29T23:01:34.156Z,8.20
2018-01-29T23:04:02.262Z,8.20
2018-01-29T23:06:30.390Z,8.20
2018-01-29T23:08:58.492Z,8.20
2018-01-29T23:11:27.260Z,8.10
2018-01-29T23:13:55.361Z,8.10
2018-01-29T23:16:23.534Z,8.10
2018-01-29T23:18:51.661Z,8.10
2018-01-29T23:21:19.765Z,8.00
2018-01-29T23:23:48.701Z,8.00
2018-01-29T23:26:17.524Z,8.00
2018-01-29T23:28:45.617Z,8.00
2018-01-29T23:31:13.709Z,8.00
2018-01-29T23:33:41.787Z,8.00
2018-01-29T23:36:09.911Z,8.10
2018-01-29T23:38:38.021Z,8.10
2018-01-29T23:41:06.851Z,8.10
2018-01-29T23:43:34.970Z,8.10
2018-01-29T23:46:03.077Z,8.20
2018-01-29T23:48:31.166Z,8.20
2018-01-29T23:50:59.305Z,8.20
2018-01-29T23:53:27.419Z,8.20
2018-01-29T23:55:55.523Z,8.20
2018-01-29T23:58:23.719Z,8.20
